Time;durP1;ratioP1;P1;durP2;ratioP2;P2;SDS_P1;SDS_P2;PMS_P1;PMS_P2;Temp;Humidity;BMP_temperature;BMP_pressure;BME280_temperature;BME280_humidity;BME280_pressure;Samples;Min_cycle;Max_cycle;Signal;HPM_P1;HPM_P2
2022/01/17 00:00:10;;;;;;;23.50;11.02;;;;;;;1.49;79.94;100450.84;4496313;31;34815;-76
2022/01/17 00:02:59;;;;;;;24.40;11.68;;;;;;;1.66;79.42;100443.69;4480106;31;34361;-76
2022/01/17 00:05:45;;;;;;;27.25;11.65;;;;;;;2.07;77.76;100438.44;4483092;31;34604;-76
2022/01/17 00:08:33;;;;;;;25.88;10.52;;;;;;;1.59;80.07;100429.47;4486991;31;35060;-76
2022/01/17 00:11:22;;;;;;;22.45;10.32;;;;;;;1.55;80.11;100434.50;4478995;31;35451;-75
2022/01/17 00:14:13;;;;;;;27.70;12.13;;;;;;;1.86;79.33;100426.34;4482746;31;34290;-75
2022/01/17 00:20:10;;;;;;;23.70;12.98;;;;;;;1.75;79.65;100409.87;4483355;31;34994;-76
2022/01/17 00:22:56;;;;;;;25.35;11.77;;;;;;;1.60;80.40;100431.13;4481937;31;35554;-76
2022/01/17 00:25:46;;;;;;;23.38;12.88;;;;;;;1.65;80.64;100435.81;4486964;31;34231;-77
2022/01/17 00:28:33;;;;;;;25.70;11.80;;;;;;;1.56;80.81;100435.31;4481513;31;34839;-76
2022/01/17 00:31:20;;;;;;;25.15;13.60;;;;;;;1.88;79.69;100424.19;4478985;31;35576;-77
2022/01/17 00:34:09;;;;;;;27.23;13.55;;;;;;;1.69;80.07;100431.59;4496525;31;34607;-75
2022/01/17 00:36:56;;;;;;;23.27;11.23;;;;;;;1.70;79.97;100431.34;4482843;31;34317;-75
2022/01/17 00:39:42;;;;;;;24.80;11.75;;;;;;;1.68;80.22;100425.38;4483866;31;34272;-75
2022/01/17 00:42:28;;;;;;;23.35;11.50;;;;;;;1.97;79.31;100436.34;4485120;31;34616;-76
2022/01/17 00:45:15;;;;;;;23.05;11.70;;;;;;;1.84;79.35;100423.03;4494813;31;34469;-75
2022/01/17 00:48:02;;;;;;;23.12;11.75;;;;;;;1.94;78.74;100434.91;4487530;31;35190;-76
2022/01/17 00:50:48;;;;;;;23.75;12.27;;;;;;;1.74;79.89;100435.25;4480986;31;34566;-75
2022/01/17 00:53:37;;;;;;;23.50;11.23;;;;;;;1.79;79.61;100427.28;4479420;31;34579;-75
2022/01/17 00:56:23;;;;;;;21.60;11.02;;;;;;;1.96;78.93;100440.06;4482224;31;34758;-73
2022/01/17 00:59:09;;;;;;;23.85;11.73;;;;;;;2.12;78.44;100435.84;4478459;31;34082;-73
2022/01/17 01:01:55;;;;;;;22.45;9.68;;;;;;;2.01;78.70;100435.59;4494908;31;35624;-73
2022/01/17 01:04:42;;;;;;;23.42;10.35;;;;;;;2.29;77.51;100435.97;4482982;31;34897;-74
2022/01/17 01:07:28;;;;;;;17.40;8.65;;;;;;;2.23;77.45;100435.84;4481128;31;35473;-73
2022/01/17 01:10:15;;;;;;;19.65;9.90;;;;;;;2.15;77.92;100438.91;4483351;31;33841;-73
2022/01/17 01:13:01;;;;;;;20.27;9.38;;;;;;;2.16;77.46;100432.47;4480669;31;35473;-74
2022/01/17 01:16:09;;;;;;;15.98;9.77;;;;;;;2.57;75.68;100424.41;4475686;31;34934;-74
2022/01/17 01:27:53;;;;;;;15.07;7.07;;;;;;;2.38;75.55;100407.50;4494817;31;35065;-74
2022/01/17 01:30:44;;;;;;;12.45;5.87;;;;;;;2.44;75.26;100395.72;4484561;31;35214;-73
2022/01/17 01:33:35;;;;;;;14.40;7.50;;;;;;;2.51;75.02;100399.13;4480786;31;35052;-73
2022/01/17 01:36:27;;;;;;;14.55;6.18;;;;;;;2.51;74.95;100396.41;4483038;31;34299;-73
2022/01/17 01:39:21;;;;;;;14.32;7.03;;;;;;;2.51;74.91;100396.41;4477696;31;34631;-73
2022/01/17 01:42:15;;;;;;;12.45;6.97;;;;;;;2.39;75.34;100390.19;4470406;31;35582;-73
2022/01/17 01:45:07;;;;;;;14.13;6.97;;;;;;;2.42;74.99;100400.53;4463174;31;34219;-74
2022/01/17 01:47:54;;;;;;;14.18;7.30;;;;;;;2.45;74.78;100416.31;4482525;31;34575;-75
2022/01/17 01:50:40;;;;;;;12.45;6.43;;;;;;;2.63;73.94;100385.56;4483460;31;35894;-73
2022/01/17 01:53:27;;;;;;;13.10;6.00;;;;;;;2.45;74.67;100390.06;4488606;31;35744;-73
2022/01/17 01:56:13;;;;;;;11.88;5.65;;;;;;;2.52;74.33;100386.41;4480464;31;35310;-73
2022/01/17 01:58:59;;;;;;;10.52;5.53;;;;;;;2.54;74.30;100384.28;4476842;31;34136;-74
2022/01/17 02:01:47;;;;;;;14.02;6.22;;;;;;;2.40;74.46;100391.84;4483078;31;34915;-73
2022/01/17 02:04:34;;;;;;;12.85;6.25;;;;;;;2.36;74.56;100393.37;4481983;31;34705;-73
2022/01/17 02:07:20;;;;;;;10.55;5.45;;;;;;;2.34;74.66;100392.81;4488535;31;34739;-73
2022/01/17 02:10:07;;;;;;;12.13;6.15;;;;;;;2.30;75.00;100403.25;4482820;31;34290;-73
2022/01/17 02:12:53;;;;;;;11.73;5.97;;;;;;;2.43;74.46;100399.50;4471601;31;33849;-73
2022/01/17 02:15:42;;;;;;;13.40;5.75;;;;;;;2.40;74.82;100405.38;4490696;31;34573;-75
2022/01/17 02:18:30;;;;;;;11.75;5.93;;;;;;;2.52;74.20;100410.75;4497402;31;34252;-73
2022/01/17 02:21:33;;;;;;;13.40;7.32;;;;;;;2.53;74.35;100401.56;4497829;31;34613;-75
2022/01/17 02:24:22;;;;;;;;;;;;;;;2.46;74.85;100404.41;4494979;31;34603;-74
2022/01/17 02:27:08;;;;;;;14.60;6.15;;;;;;;2.35;75.41;100402.56;4482616;31;35000;-74
2022/01/17 02:29:55;;;;;;;16.15;9.05;;;;;;;2.42;75.30;100403.22;4485619;31;33710;-75
2022/01/17 02:32:41;;;;;;;15.77;8.75;;;;;;;2.42;75.13;100387.00;4489693;31;35613;-74
2022/01/17 02:35:28;;;;;;;15.13;7.68;;;;;;;2.32;75.64;100384.09;4497494;31;35846;-74
2022/01/17 02:38:18;;;;;;;13.75;8.32;;;;;;;2.29;75.86;100387.28;4482632;31;35408;-73
2022/01/17 02:41:04;;;;;;;13.60;7.18;;;;;;;2.31;75.72;100383.28;4469894;31;34137;-74
2022/01/17 02:43:51;;;;;;;14.40;7.22;;;;;;;2.32;75.71;100376.00;4486195;31;35458;-73
2022/01/17 02:46:37;;;;;;;15.88;7.65;;;;;;;2.28;75.75;100372.94;4478643;31;34895;-74
2022/01/17 02:49:23;;;;;;;14.32;6.80;;;;;;;2.32;75.79;100370.59;4479710;31;34861;-73
2022/01/17 02:52:10;;;;;;;12.95;6.80;;;;;;;2.34;75.69;100368.47;4497169;31;33975;-74
2022/01/17 02:54:56;;;;;;;14.25;7.37;;;;;;;2.33;75.71;100356.00;4485598;31;34322;-74
2022/01/17 02:57:42;;;;;;;14.32;6.57;;;;;;;2.25;75.74;100344.50;4482716;31;35106;-74
2022/01/17 03:00:29;;;;;;;16.15;7.68;;;;;;;2.30;75.46;100348.34;4494920;31;34655;-74
2022/01/17 03:03:21;;;;;;;14.52;6.72;;;;;;;2.20;75.51;100357.91;4485062;31;33972;-74
2022/01/17 03:06:09;;;;;;;12.37;6.05;;;;;;;2.27;75.14;100333.44;4494077;31;35572;-73
2022/01/17 03:08:56;;;;;;;13.38;7.32;;;;;;;2.19;75.62;100322.97;4483133;31;35025;-73
2022/01/17 03:11:42;;;;;;;14.70;7.53;;;;;;;2.19;75.25;100329.25;4481284;31;34651;-74
2022/01/17 03:14:29;;;;;;;13.85;7.40;;;;;;;2.25;74.75;100332.88;4477140;31;33850;-73
2022/01/17 03:17:15;;;;;;;11.93;7.22;;;;;;;2.25;74.61;100314.75;4496469;31;34590;-73
2022/01/17 03:20:02;;;;;;;12.98;6.93;;;;;;;2.21;74.86;100304.66;4487290;31;36071;-74
2022/01/17 03:22:48;;;;;;;12.85;5.37;;;;;;;2.20;74.86;100320.06;4480656;31;35431;-73
2022/01/17 03:25:34;;;;;;;12.82;5.78;;;;;;;2.47;74.17;100309.50;4490989;31;34145;-73
2022/01/17 03:28:21;;;;;;;11.23;5.72;;;;;;;2.46;73.81;100317.88;4476622;31;34670;-73
2022/01/17 03:31:08;;;;;;;12.05;6.57;;;;;;;2.31;74.19;100331.09;4487471;31;35918;-73
2022/01/17 03:33:55;;;;;;;11.73;5.68;;;;;;;2.35;73.81;100332.25;4483385;31;34509;-74
2022/01/17 03:36:44;;;;;;;13.80;5.97;;;;;;;2.45;73.39;100343.28;4479819;31;34173;-74
2022/01/17 03:39:30;;;;;;;13.00;7.75;;;;;;;2.61;72.76;100347.09;4494222;31;34700;-74
2022/01/17 03:42:18;;;;;;;11.93;5.78;;;;;;;2.56;72.16;100360.50;4486507;31;35934;-74
2022/01/17 03:45:07;;;;;;;12.25;5.00;;;;;;;2.56;72.80;100363.22;4482710;31;34867;-74
2022/01/17 03:47:53;;;;;;;12.85;5.55;;;;;;;2.67;72.39;100352.34;4482313;31;35190;-74
2022/01/17 03:50:40;;;;;;;13.25;7.03;;;;;;;2.83;72.06;100371.59;4480941;31;34241;-74
2022/01/17 03:53:27;;;;;;;12.40;6.50;;;;;;;2.45;72.91;100359.50;4480866;31;34893;-75
2022/01/17 03:56:13;;;;;;;12.02;6.35;;;;;;;2.51;72.74;100353.13;4467348;31;34547;-74
2022/01/17 03:58:59;;;;;;;15.10;6.45;;;;;;;2.48;72.97;100353.62;4485715;31;33788;-74
2022/01/17 04:01:49;;;;;;;13.27;7.60;;;;;;;2.58;72.76;100361.91;4488303;31;35510;-74
2022/01/17 04:04:35;;;;;;;12.77;5.95;;;;;;;2.34;73.66;100366.59;4493964;31;35938;-74
2022/01/17 04:07:21;;;;;;;13.38;6.90;;;;;;;2.37;73.92;100366.09;4497339;31;34544;-74
2022/01/17 04:10:08;;;;;;;13.68;6.20;;;;;;;2.33;74.04;100373.03;4490520;31;35078;-74
2022/01/17 04:13:00;;;;;;;12.20;6.25;;;;;;;2.46;74.02;100356.53;4489089;31;34664;-75
2022/01/17 04:15:48;;;;;;;14.15;6.68;;;;;;;2.38;74.15;100353.41;4477640;32;34732;-75
2022/01/17 04:18:34;;;;;;;14.13;6.43;;;;;;;2.36;74.50;100363.63;4479542;31;34570;-76
2022/01/17 04:21:21;;;;;;;14.82;6.57;;;;;;;2.40;74.34;100367.50;4468077;31;34831;-74
2022/01/17 04:24:07;;;;;;;15.10;7.80;;;;;;;2.42;74.58;100376.19;4472896;31;35571;-74
2022/01/17 04:26:54;;;;;;;14.05;6.82;;;;;;;2.21;75.21;100375.75;4482377;31;35008;-75
2022/01/17 04:29:40;;;;;;;15.25;6.75;;;;;;;2.33;75.01;100372.22;4483349;31;34241;-75
2022/01/17 04:32:27;;;;;;;13.35;6.05;;;;;;;2.37;74.94;100389.63;4478315;31;35068;-75
2022/01/17 04:35:20;;;;;;;13.27;6.45;;;;;;;3.03;72.42;100385.50;4472570;31;34203;-75
2022/01/17 04:38:13;;;;;;;14.98;6.80;;;;;;;2.85;72.76;100381.12;4493615;31;34995;-75
2022/01/17 04:41:11;;;;;;;15.38;6.93;;;;;;;2.60;73.59;100381.44;4481430;31;34691;-75
2022/01/17 04:45:07;;;;;;;13.98;6.87;;;;;;;2.63;74.04;100361.22;4492174;31;33513;-74
2022/01/17 04:47:04;;;;;;;13.98;7.22;;;;;;;2.30;75.17;100375.41;4482721;31;34677;-75
2022/01/17 04:49:50;;;;;;;14.95;7.72;;;;;;;2.20;76.10;100363.31;4485897;31;34806;-75
2022/01/17 04:52:36;;;;;;;15.98;8.27;;;;;;;2.18;76.08;100357.31;4483465;31;34517;-75
2022/01/17 04:55:24;;;;;;;14.98;8.00;;;;;;;2.29;75.68;100354.84;4481007;31;33989;-75
2022/01/17 04:58:10;;;;;;;14.80;6.85;;;;;;;2.17;76.08;100350.28;4484625;31;34652;-74
2022/01/17 05:00:57;;;;;;;15.57;7.20;;;;;;;2.36;75.78;100339.28;4491640;31;36049;-75
2022/01/17 05:03:43;;;;;;;13.80;6.45;;;;;;;2.28;75.85;100336.94;4482801;31;34256;-76
2022/01/17 05:06:29;;;;;;;14.43;6.37;;;;;;;2.59;74.65;100335.69;4484677;31;34287;-75
2022/01/17 05:09:16;;;;;;;12.85;6.12;;;;;;;2.53;74.30;100334.75;4479181;31;35667;-75
2022/01/17 05:12:02;;;;;;;13.45;6.25;;;;;;;2.49;75.00;100347.12;4493478;31;34934;-76
2022/01/17 05:14:51;;;;;;;14.35;6.68;;;;;;;2.51;74.66;100345.03;4487282;31;34689;-76
2022/01/17 05:17:43;;;;;;;14.48;6.35;;;;;;;2.57;73.96;100349.47;4479424;31;35133;-76
2022/01/17 05:20:29;;;;;;;11.07;6.10;;;;;;;2.57;74.27;100345.94;4491445;31;34544;-76
2022/01/17 05:23:16;;;;;;;13.60;6.55;;;;;;;2.76;73.47;100352.81;4475186;31;34922;-76
2022/01/17 05:26:02;;;;;;;13.07;6.62;;;;;;;2.55;74.07;100354.28;4463874;31;35558;-76
2022/01/17 05:28:49;;;;;;;12.85;5.75;;;;;;;2.50;74.38;100367.69;4489339;31;34243;-77
2022/01/17 05:31:35;;;;;;;13.68;7.07;;;;;;;2.66;74.19;100360.72;4492493;31;34953;-76
2022/01/17 05:34:21;;;;;;;11.27;5.80;;;;;;;2.43;74.94;100357.03;4484401;31;34952;-75
2022/01/17 05:37:13;;;;;;;17.45;8.15;;;;;;;2.61;74.35;100342.50;4488208;31;35760;-76
2022/01/17 05:40:01;;;;;;;13.90;7.25;;;;;;;2.46;74.69;100334.91;4485844;31;34325;-75
2022/01/17 05:42:48;;;;;;;14.50;6.87;;;;;;;2.32;75.90;100328.13;4479046;31;34661;-76
2022/01/17 05:45:35;;;;;;;12.68;6.55;;;;;;;2.54;74.91;100327.50;4483723;31;34717;-76
2022/01/17 05:48:21;;;;;;;12.43;6.57;;;;;;;2.47;75.24;100314.09;4489846;31;34469;-77
2022/01/17 05:51:07;;;;;;;15.63;7.25;;;;;;;2.40;75.76;100324.25;4477033;31;34112;-76
2022/01/17 05:53:54;;;;;;;16.45;7.15;;;;;;;2.40;75.58;100318.84;4474089;31;34611;-71
2022/01/17 05:56:40;;;;;;;12.32;6.03;;;;;;;2.60;74.98;100308.41;4464519;31;35038;-74
2022/01/17 05:59:26;;;;;;;11.60;6.35;;;;;;;2.98;73.18;100298.78;4478776;31;34627;-76
2022/01/17 06:02:13;;;;;;;11.65;5.57;;;;;;;2.50;74.35;100308.19;4489764;31;34215;-75
2022/01/17 06:04:59;;;;;;;11.85;5.47;;;;;;;2.54;74.47;100309.38;4488405;31;34632;-76
2022/01/17 06:07:46;;;;;;;13.15;5.62;;;;;;;2.90;72.77;100302.72;4495230;31;35030;-74
2022/01/17 06:10:32;;;;;;;11.98;6.28;;;;;;;2.75;72.89;100307.03;4483426;31;35470;-81
2022/01/17 06:13:18;;;;;;;11.93;6.22;;;;;;;2.80;72.89;100312.53;4492178;31;35184;-75
2022/01/17 06:16:05;;;;;;;11.93;5.97;;;;;;;3.04;71.59;100307.81;4493775;31;35270;-74
2022/01/17 06:18:51;;;;;;;11.98;5.30;;;;;;;3.22;71.03;100310.31;4478439;31;34911;-74
2022/01/17 06:21:38;;;;;;;12.32;5.93;;;;;;;3.31;70.50;100321.53;4478468;31;34613;-77
2022/01/17 06:24:24;;;;;;;11.77;5.68;;;;;;;3.08;71.32;100311.69;4492438;31;34776;-79
2022/01/17 06:27:11;;;;;;;10.73;5.10;;;;;;;2.65;73.17;100321.22;4477415;31;34259;-77
2022/01/17 06:29:59;;;;;;;11.50;6.18;;;;;;;2.83;72.89;100306.66;4481020;31;35991;-75
2022/01/17 06:32:45;;;;;;;12.55;7.03;;;;;;;2.91;72.36;100320.59;4478175;31;34881;-78
2022/01/17 06:35:32;;;;;;;13.27;6.60;;;;;;;2.67;73.19;100313.66;4479909;31;34293;-77
2022/01/17 06:38:19;;;;;;;11.50;5.60;;;;;;;2.67;73.38;100302.81;4481405;31;34574;-78
2022/01/17 06:41:05;;;;;;;11.90;6.20;;;;;;;2.86;72.35;100298.03;4496011;31;35034;-79
2022/01/17 06:43:55;;;;;;;9.93;5.30;;;;;;;2.80;72.84;100297.13;4488648;31;35593;-75
2022/01/17 06:46:41;;;;;;;11.23;5.07;;;;;;;2.95;72.46;100293.03;4467443;31;34197;-75
2022/01/17 06:49:28;;;;;;;11.55;5.20;;;;;;;2.87;72.38;100291.53;4478338;31;34622;-79
2022/01/17 06:52:14;;;;;;;11.35;5.78;;;;;;;2.89;72.22;100284.00;4489987;31;33843;-79
2022/01/17 06:55:02;;;;;;;12.02;6.80;;;;;;;2.86;72.34;100279.09;4492680;31;34711;-82
2022/01/17 06:57:52;;;;;;;13.43;5.85;;;;;;;2.91;72.12;100298.13;4479621;31;34221;-76
2022/01/17 07:00:38;;;;;;;9.48;5.55;;;;;;;2.93;71.96;100293.28;4476196;31;34566;-77
2022/01/17 07:03:24;;;;;;;10.18;5.50;;;;;;;2.99;71.63;100283.34;4475254;31;34362;-77
2022/01/17 07:06:11;;;;;;;9.98;5.37;;;;;;;3.01;71.71;100292.88;4469309;31;35560;-76
2022/01/17 07:08:58;;;;;;;10.20;6.37;;;;;;;2.97;72.08;100286.31;4489586;31;34275;-77
2022/01/17 07:11:45;;;;;;;11.27;7.68;;;;;;;2.92;72.42;100278.09;4487106;31;34543;-76
2022/01/17 07:14:31;;;;;;;9.20;4.75;;;;;;;2.89;72.58;100263.16;4480009;31;34598;-75
2022/01/17 07:17:18;;;;;;;12.27;6.25;;;;;;;3.04;72.41;100262.59;4476528;31;35394;-76
2022/01/17 07:20:06;;;;;;;9.27;4.60;;;;;;;2.89;73.03;100252.34;4474883;31;35198;-76
2022/01/17 07:22:55;;;;;;;9.82;5.00;;;;;;;2.92;73.21;100262.69;4489848;31;34643;-77
2022/01/17 07:25:42;;;;;;;10.02;4.93;;;;;;;2.94;73.37;100259.75;4488712;31;34956;-76
2022/01/17 07:28:28;;;;;;;10.98;5.70;;;;;;;2.98;72.88;100270.87;4493145;31;34819;-80
2022/01/17 07:31:21;;;;;;;9.60;4.43;;;;;;;3.01;72.75;100298.28;4479233;31;33208;-77
2022/01/17 07:34:07;;;;;;;9.15;4.70;;;;;;;3.21;72.10;100305.94;4491543;31;34669;-78
2022/01/17 07:36:54;;;;;;;10.00;5.45;;;;;;;3.17;72.23;100303.97;4489333;31;35035;-78
2022/01/17 07:39:43;;;;;;;8.57;4.35;;;;;;;3.21;72.08;100318.66;4490799;31;34777;-75
2022/01/17 07:42:34;;;;;;;8.90;4.20;;;;;;;3.21;72.02;100338.44;4483880;31;35010;-77
2022/01/17 07:45:21;;;;;;;;;;;;;;;3.45;71.38;100363.50;4481313;31;36062;-76
2022/01/17 07:51:23;;;;;;;5.93;3.55;;;;;;;3.30;71.96;100411.97;4480294;31;35398;-74
2022/01/17 07:54:11;;;;;;;8.65;5.25;;;;;;;3.37;71.70;100377.44;4481309;31;35108;-75
2022/01/17 07:56:59;;;;;;;10.90;4.75;;;;;;;3.33;72.11;100322.94;4473175;31;34082;-73
2022/01/17 07:59:46;;;;;;;9.40;4.97;;;;;;;3.31;72.31;100311.53;4477174;31;35955;-73
2022/01/17 08:02:33;;;;;;;10.00;4.78;;;;;;;3.22;72.73;100306.78;4492866;31;34571;-76
2022/01/17 08:05:20;;;;;;;7.22;4.00;;;;;;;3.36;72.31;100310.78;4477054;31;34236;-76
2022/01/17 08:08:06;;;;;;;9.50;5.40;;;;;;;3.37;72.35;100325.97;4492114;31;34598;-75
2022/01/17 08:10:52;;;;;;;8.88;4.32;;;;;;;3.24;73.00;100315.44;4489889;31;35022;-77
2022/01/17 08:13:39;;;;;;;12.63;5.68;;;;;;;3.26;73.13;100305.19;4464381;31;34622;-76
2022/01/17 08:16:25;;;;;;;8.95;4.62;;;;;;;3.23;73.18;100289.44;4475170;31;35100;-76
2022/01/17 08:19:13;;;;;;;7.95;3.85;;;;;;;3.25;73.04;100290.84;4465854;31;34680;-73
2022/01/17 08:22:04;;;;;;;8.65;4.30;;;;;;;3.26;73.21;100278.13;4492654;31;34479;-73
2022/01/17 08:24:50;;;;;;;8.93;4.05;;;;;;;3.27;73.18;100252.66;4474134;31;34561;-72
2022/01/17 08:27:37;;;;;;;7.40;4.20;;;;;;;3.36;72.72;100243.06;4492770;31;34445;-72
2022/01/17 08:30:23;;;;;;;7.53;4.28;;;;;;;3.49;72.55;100247.31;4488015;31;34556;-73
2022/01/17 08:33:29;;;;;;;11.20;4.55;;;;;;;3.55;72.22;100249.84;4489545;31;35084;-72
2022/01/17 08:36:19;;;;;;;9.45;4.80;;;;;;;3.83;71.46;100250.75;4477395;32;35570;-78
2022/01/17 08:39:07;;;;;;;9.10;5.03;;;;;;;3.69;70.86;100254.91;4474621;32;34279;-73
2022/01/17 08:41:54;;;;;;;9.00;3.85;;;;;;;3.51;71.91;100285.81;4485404;31;34597;-72
2022/01/17 08:44:49;;;;;;;8.32;4.15;;;;;;;3.63;71.77;100281.09;4477294;31;35875;-73
2022/01/17 08:47:36;;;;;;;9.32;4.53;;;;;;;3.64;71.67;100301.72;4489853;31;34361;-75
2022/01/17 08:50:23;;;;;;;9.85;4.30;;;;;;;3.51;72.09;100305.59;4481429;31;34098;-74
2022/01/17 08:53:13;;;;;;;8.75;4.40;;;;;;;3.72;71.49;100314.03;4493683;31;34557;-74
2022/01/17 08:56:02;;;;;;;9.27;4.65;;;;;;;3.89;70.72;100293.12;4476633;31;35019;-75
2022/01/17 08:58:48;;;;;;;11.40;6.03;;;;;;;3.97;70.81;100273.72;4474359;31;35425;-73
2022/01/17 09:01:34;;;;;;;10.65;5.28;;;;;;;3.77;71.30;100293.22;4488399;31;34020;-77
2022/01/17 09:04:20;;;;;;;10.13;4.57;;;;;;;3.69;72.38;100249.47;4491220;31;35246;-75
2022/01/17 09:07:12;;;;;;;9.07;5.15;;;;;;;3.75;72.83;100259.31;4488872;31;35922;-77
2022/01/17 09:09:59;;;;;;;;;;;;;;;3.67;73.64;100236.19;4479034;31;34759;-75
2022/01/17 09:12:45;;;;;;;12.40;6.20;;;;;;;3.66;73.69;100244.56;4487828;31;34062;-72
2022/01/17 09:15:31;;;;;;;9.80;5.18;;;;;;;3.59;73.65;100229.31;4485843;31;33539;-76
2022/01/17 09:18:20;;;;;;;10.43;5.20;;;;;;;3.64;73.29;100209.56;4480933;31;34934;-79
2022/01/17 09:21:06;;;;;;;11.85;5.45;;;;;;;3.68;73.24;100226.16;4489901;31;34821;-75
2022/01/17 09:23:57;;;;;;;9.43;5.10;;;;;;;3.72;72.53;100238.13;4473363;31;35299;-75
2022/01/17 09:26:44;;;;;;;9.30;4.70;;;;;;;3.73;72.18;100223.50;4480591;31;35322;-75
2022/01/17 09:29:31;;;;;;;10.80;6.55;;;;;;;3.69;72.08;100201.50;4473502;31;35762;-73
2022/01/17 09:32:17;;;;;;;9.98;5.05;;;;;;;3.70;71.81;100235.69;4471198;31;34595;-77
2022/01/17 09:35:06;;;;;;;10.93;4.95;;;;;;;3.76;71.81;100195.94;4486403;31;34539;-74
2022/01/17 09:37:53;;;;;;;13.45;5.80;;;;;;;3.74;71.82;100215.12;4478323;31;36088;-76
2022/01/17 09:40:39;;;;;;;10.98;5.05;;;;;;;3.72;71.82;100195.59;4477085;31;34523;-74
2022/01/17 09:43:46;;;;;;;13.62;4.85;;;;;;;3.78;71.59;100196.47;4481631;31;34481;-78
2022/01/17 09:46:38;;;;;;;10.90;5.20;;;;;;;3.83;71.41;100191.94;4478671;31;33117;-77
2022/01/17 09:49:36;;;;;;;10.50;6.12;;;;;;;3.80;71.46;100173.47;4488177;31;35220;-76
2022/01/17 09:55:21;;;;;;;10.73;5.75;;;;;;;3.80;70.87;100165.34;4479827;31;33386;-76
2022/01/17 09:58:09;;;;;;;11.60;6.05;;;;;;;3.96;70.29;100131.09;4478437;31;34162;-78
2022/01/17 10:00:55;;;;;;;11.00;5.68;;;;;;;3.94;69.86;100143.25;4492501;31;34719;-76
2022/01/17 10:03:42;;;;;;;10.38;5.85;;;;;;;3.91;70.04;100128.31;4479828;31;34953;-78
2022/01/17 10:06:29;;;;;;;9.73;5.55;;;;;;;3.89;70.10;100144.00;4492932;31;34694;-76
2022/01/17 10:09:21;;;;;;;11.68;5.62;;;;;;;4.01;69.59;100139.28;4489121;31;34103;-75
2022/01/17 10:12:14;;;;;;;10.20;5.32;;;;;;;3.98;69.99;100144.38;4477386;31;35210;-73
2022/01/17 10:15:04;;;;;;;11.00;4.75;;;;;;;4.22;69.23;100131.34;4490428;31;33965;-74
2022/01/17 10:17:56;;;;;;;10.68;4.37;;;;;;;4.29;68.66;100145.50;4489842;31;34495;-74
2022/01/17 10:20:46;;;;;;;;;;;;;;;4.33;68.34;100146.66;4489528;31;34457;-73
2022/01/17 10:24:10;;;;;;;10.48;4.53;;;;;;;4.19;68.84;100137.28;4477775;31;33564;-74
2022/01/17 10:35:49;;;;;;;9.45;4.50;;;;;;;4.34;67.96;100109.47;4489966;31;35593;-75
2022/01/17 10:38:36;;;;;;;10.77;5.53;;;;;;;4.42;67.61;100101.69;4492683;31;35044;-74
2022/01/17 10:41:26;;;;;;;11.55;4.80;;;;;;;4.37;67.96;100088.06;4479536;31;33452;-75
2022/01/17 10:44:36;;;;;;;10.50;6.20;;;;;;;4.45;68.09;100081.34;4491428;31;33836;-75
2022/01/17 10:47:26;;;;;;;12.85;5.10;;;;;;;4.32;68.56;100074.44;4482065;31;36326;-75
2022/01/17 10:50:24;;;;;;;9.10;4.93;;;;;;;4.49;68.24;100069.69;4463738;31;35911;-74
2022/01/17 10:53:13;;;;;;;10.88;5.10;;;;;;;4.61;67.96;100084.97;4475467;31;34337;-74
2022/01/17 10:56:05;;;;;;;10.60;5.72;;;;;;;4.53;68.49;100082.78;4478211;31;33804;-75
2022/01/17 10:59:04;;;;;;;9.57;5.07;;;;;;;4.50;69.00;100070.53;4468519;31;34569;-74
2022/01/17 11:01:53;;;;;;;9.65;4.82;;;;;;;4.44;69.68;100047.97;4487565;31;35732;-75
2022/01/17 11:04:41;;;;;;;11.68;6.40;;;;;;;4.48;69.43;100053.69;4477473;31;34313;-76
2022/01/17 11:07:28;;;;;;;10.27;5.80;;;;;;;4.40;69.53;100046.84;4476907;31;34200;-74
2022/01/17 11:10:33;;;;;;;11.05;5.62;;;;;;;4.46;69.30;100043.09;4474192;31;35284;-76
2022/01/17 11:13:22;;;;;;;9.93;5.57;;;;;;;4.57;68.88;100026.87;4473265;31;35125;-77
2022/01/17 11:16:12;;;;;;;11.70;5.62;;;;;;;4.64;68.72;100024.75;4482223;31;34885;-76
2022/01/17 11:19:20;;;;;;;10.18;6.43;;;;;;;4.65;68.45;100007.41;4477835;31;34022;-77
2022/01/17 11:22:06;;;;;;;10.95;5.72;;;;;;;4.72;68.22;100013.41;4488014;31;35262;-77
2022/01/17 11:24:52;;;;;;;9.85;5.47;;;;;;;4.73;68.00;100006.91;4478925;31;35966;-75
2022/01/17 11:27:40;;;;;;;9.93;5.18;;;;;;;4.80;67.88;99991.19;4479478;31;34778;-76
2022/01/17 11:30:27;;;;;;;8.48;4.30;;;;;;;4.85;67.23;99984.97;4488368;31;34233;-75
2022/01/17 11:33:13;;;;;;;8.70;4.53;;;;;;;5.05;66.20;99984.25;4475663;31;34644;-75
2022/01/17 11:36:00;;;;;;;9.90;5.20;;;;;;;4.96;66.73;99987.47;4478583;31;34564;-74
2022/01/17 11:38:49;;;;;;;7.97;4.10;;;;;;;4.91;66.95;99994.78;4488303;31;34650;-73
2022/01/17 11:41:35;;;;;;;7.57;4.20;;;;;;;5.07;65.72;100014.69;4477648;31;35051;-74
2022/01/17 11:44:33;;;;;;;6.07;2.97;;;;;;;5.18;64.72;100000.06;4489131;31;35575;-72
2022/01/17 11:47:53;;;;;;;5.78;3.12;;;;;;;5.33;64.19;100004.72;4481853;31;35871;-73
2022/01/17 11:50:43;;;;;;;6.70;3.03;;;;;;;5.39;63.30;99990.88;4487351;31;34246;-75
2022/01/17 11:53:30;;;;;;;6.07;2.45;;;;;;;5.38;63.42;99991.97;4477974;31;35117;-74
2022/01/17 11:56:34;;;;;;;5.93;3.05;;;;;;;5.41;63.33;99994.13;4492141;31;34665;-72
2022/01/17 11:59:32;;;;;;;5.90;2.95;;;;;;;5.34;63.62;99979.16;4466389;31;34479;-78
2022/01/17 12:02:24;;;;;;;6.50;3.03;;;;;;;5.38;63.43;99978.37;4496411;31;35462;-76
2022/01/17 12:05:31;;;;;;;6.82;3.00;;;;;;;5.32;63.87;99974.00;4488718;31;35221;-80
2022/01/17 12:08:20;;;;;;;4.18;2.15;;;;;;;5.27;64.50;99954.97;4487334;31;34540;-80
2022/01/17 12:11:07;;;;;;;7.82;3.42;;;;;;;5.39;64.46;99979.19;4474537;31;35040;-75
2022/01/17 12:13:59;;;;;;;8.23;3.78;;;;;;;5.22;65.20;99944.09;4492474;31;34896;-73
2022/01/17 12:16:45;;;;;;;7.35;3.65;;;;;;;5.25;65.37;99937.31;4474049;31;34307;-75
2022/01/17 12:19:31;;;;;;;8.73;4.30;;;;;;;5.22;65.34;99941.38;4474364;31;35496;-76
2022/01/17 12:22:18;;;;;;;11.02;6.20;;;;;;;5.22;65.46;99949.53;4490739;31;35905;-76
2022/01/17 12:25:40;;;;;;;9.35;5.05;;;;;;;5.05;65.47;99940.78;4476282;31;34307;-75
2022/01/17 12:28:26;;;;;;;8.85;4.18;;;;;;;5.02;65.88;99930.47;4409287;32;34930;-76
2022/01/17 12:31:13;;;;;;;11.32;4.97;;;;;;;5.08;65.28;99913.91;4486171;31;34619;-76
2022/01/17 12:34:19;;;;;;;10.02;5.93;;;;;;;5.00;65.49;99889.97;4490425;31;34974;-76
2022/01/17 12:37:34;;;;;;;11.38;5.30;;;;;;;4.90;65.95;99885.34;4479500;31;34546;-78
2022/01/17 12:40:36;;;;;;;9.90;5.60;;;;;;;4.86;66.31;99888.84;4487594;31;34905;-78
2022/01/17 12:43:29;;;;;;;9.57;4.90;;;;;;;4.86;66.58;99899.72;4477033;31;34175;-81
2022/01/17 12:46:19;;;;;;;10.75;5.90;;;;;;;4.89;66.63;99891.84;4476989;31;35003;-76
2022/01/17 12:49:05;;;;;;;10.65;5.37;;;;;;;4.85;66.94;99898.09;4489265;31;34678;-75
2022/01/17 12:51:54;;;;;;;14.82;7.93;;;;;;;4.85;67.05;99901.63;4489909;31;34271;-75
2022/01/17 12:54:46;;;;;;;7.10;4.20;;;;;;;4.88;66.85;99884.78;4476347;31;34581;-77
2022/01/17 12:57:46;;;;;;;8.93;4.93;;;;;;;4.91;66.71;99897.00;4466325;31;35014;-77
2022/01/17 13:00:34;;;;;;;10.43;5.22;;;;;;;4.91;66.69;99916.03;4489777;31;35464;-73
2022/01/17 13:03:23;;;;;;;6.85;3.47;;;;;;;4.90;66.28;99938.84;4491091;31;34572;-75
2022/01/17 13:06:18;;;;;;;7.62;3.75;;;;;;;5.01;65.76;99888.06;4475673;31;34246;-76
2022/01/17 13:09:13;;;;;;;8.75;3.12;;;;;;;5.09;64.63;99885.66;4489566;31;35636;-72
2022/01/17 13:12:05;;;;;;;6.65;3.80;;;;;;;5.15;64.51;99867.44;4465197;31;34525;-74
2022/01/17 13:14:58;;;;;;;13.32;5.55;;;;;;;5.08;64.79;99885.94;4487312;31;35289;-74
2022/01/17 13:17:49;;;;;;;6.90;3.70;;;;;;;5.07;65.03;99889.75;4489747;31;34303;-74
2022/01/17 13:20:37;;;;;;;7.87;3.55;;;;;;;5.03;65.03;99875.84;4467015;31;34486;-73
2022/01/17 13:23:35;;;;;;;5.43;3.05;;;;;;;5.10;64.98;99891.91;4487963;31;34635;-75
2022/01/17 13:26:35;;;;;;;7.28;3.97;;;;;;;5.10;64.90;99867.47;4478739;31;35035;-74
2022/01/17 13:29:27;;;;;;;9.68;3.85;;;;;;;5.09;65.06;99871.25;4467508;31;34405;-74
2022/01/17 13:32:14;;;;;;;11.82;5.30;;;;;;;5.06;65.18;99867.16;4477640;31;34599;-73
2022/01/17 13:35:11;;;;;;;15.10;7.45;;;;;;;5.14;65.20;99853.06;4490782;31;35363;-74
2022/01/17 13:38:21;;;;;;;10.32;3.83;;;;;;;5.17;65.03;99862.56;4478585;31;33890;-73